Iberia, Ohio
Current Conditions -  °F | °C
As of 3:53 PM on Saturday 22 Nov 2014 (Local Time) from KMNN Reporting Station
Overcast Overcast  
Wind Chill: 39°   Ceiling: 7500
Heat Index: 45°   Visibility: 9mi
Dew Point: 38°   Wind: 13mph
Humidity: 76%   Direction: 190°S
Pressure: 30.07"   Gusts: NA
Location:  40.67°N, 82.84°W
Report Text: KMNN 222053Z AUTO 19011KT 9SM SCT047 SCT060 OVC075 07/03 A3007 RMK AO2 RAB00E09B27E48 SLP194 P0000 60000 T00720033 56018 TSNO
Loading
Personal Weather Stations






























Interactive Weather Map New forecast layout! Learn more

10-Day Weather Forecast

Advertisements
Track Severe Weather on mobile